sensor_id;sensor_type;location;lat;lon;timestamp;pressure;altitude;pressure_sealevel;temperature
45701;BMP280;36277;32.852;-116.998;2023-05-07T00:00:59;100350.34;;;25.99
45701;BMP280;36277;32.852;-116.998;2023-05-07T00:03:25;100358.44;;;26.00
45701;BMP280;36277;32.852;-116.998;2023-05-07T00:05:52;100352.50;;;26.03
45701;BMP280;36277;32.852;-116.998;2023-05-07T00:08:21;100358.13;;;26.10
45701;BMP280;36277;32.852;-116.998;2023-05-07T00:10:47;100357.06;;;26.11
45701;BMP280;36277;32.852;-116.998;2023-05-07T00:13:13;100358.56;;;26.13
45701;BMP280;36277;32.852;-116.998;2023-05-07T00:15:40;100363.69;;;26.16
45701;BMP280;36277;32.852;-116.998;2023-05-07T00:18:06;100365.41;;;26.17
45701;BMP280;36277;32.852;-116.998;2023-05-07T00:20:32;100351.56;;;26.17
45701;BMP280;36277;32.852;-116.998;2023-05-07T00:22:58;100358.59;;;26.20
45701;BMP280;36277;32.852;-116.998;2023-05-07T00:25:25;100356.50;;;26.22
45701;BMP280;36277;32.852;-116.998;2023-05-07T00:27:51;100359.69;;;26.25
45701;BMP280;36277;32.852;-116.998;2023-05-07T00:30:17;100364.00;;;26.28
45701;BMP280;36277;32.852;-116.998;2023-05-07T00:32:43;100358.22;;;26.29
45701;BMP280;36277;32.852;-116.998;2023-05-07T00:35:11;100370.63;;;26.33
45701;BMP280;36277;32.852;-116.998;2023-05-07T00:37:37;100368.09;;;26.38
45701;BMP280;36277;32.852;-116.998;2023-05-07T00:40:04;100360.91;;;26.43
45701;BMP280;36277;32.852;-116.998;2023-05-07T00:42:32;100362.44;;;26.46
45701;BMP280;36277;32.852;-116.998;2023-05-07T00:44:59;100367.38;;;26.50
45701;BMP280;36277;32.852;-116.998;2023-05-07T00:47:25;100363.31;;;26.53
45701;BMP280;36277;32.852;-116.998;2023-05-07T00:49:52;100371.22;;;26.56
45701;BMP280;36277;32.852;-116.998;2023-05-07T00:52:20;100372.28;;;26.55
45701;BMP280;36277;32.852;-116.998;2023-05-07T00:54:48;100367.00;;;26.60
45701;BMP280;36277;32.852;-116.998;2023-05-07T00:57:14;100372.13;;;26.63
45701;BMP280;36277;32.852;-116.998;2023-05-07T00:59:41;100375.94;;;26.62
45701;BMP280;36277;32.852;-116.998;2023-05-07T01:02:07;100370.19;;;26.63
45701;BMP280;36277;32.852;-116.998;2023-05-07T01:04:34;100371.06;;;26.64
45701;BMP280;36277;32.852;-116.998;2023-05-07T01:07:01;100374.88;;;26.63
45701;BMP280;36277;32.852;-116.998;2023-05-07T01:09:28;100373.81;;;26.64
45701;BMP280;36277;32.852;-116.998;2023-05-07T01:11:56;100372.81;;;26.71
45701;BMP280;36277;32.852;-116.998;2023-05-07T01:14:24;100374.72;;;26.71
45701;BMP280;36277;32.852;-116.998;2023-05-07T01:16:51;100375.09;;;26.61
45701;BMP280;36277;32.852;-116.998;2023-05-07T01:19:18;100367.88;;;26.67
45701;BMP280;36277;32.852;-116.998;2023-05-07T01:21:47;100368.13;;;26.72
45701;BMP280;36277;32.852;-116.998;2023-05-07T01:24:14;100367.25;;;26.71
45701;BMP280;36277;32.852;-116.998;2023-05-07T01:26:43;100370.44;;;26.68
45701;BMP280;36277;32.852;-116.998;2023-05-07T01:29:10;100372.78;;;26.65
45701;BMP280;36277;32.852;-116.998;2023-05-07T01:31:37;100375.44;;;26.52
45701;BMP280;36277;32.852;-116.998;2023-05-07T01:34:06;100378.78;;;26.41
45701;BMP280;36277;32.852;-116.998;2023-05-07T01:36:34;100388.13;;;26.40
45701;BMP280;36277;32.852;-116.998;2023-05-07T01:39:02;100379.50;;;26.22
45701;BMP280;36277;32.852;-116.998;2023-05-07T01:41:28;100382.78;;;25.84
45701;BMP280;36277;32.852;-116.998;2023-05-07T01:43:55;100387.75;;;25.53
45701;BMP280;36277;32.852;-116.998;2023-05-07T01:46:23;100391.91;;;25.42
45701;BMP280;36277;32.852;-116.998;2023-05-07T01:48:51;100394.22;;;25.25
45701;BMP280;36277;32.852;-116.998;2023-05-07T01:51:17;100389.84;;;25.30
45701;BMP280;36277;32.852;-116.998;2023-05-07T01:53:45;100396.09;;;25.38
45701;BMP280;36277;32.852;-116.998;2023-05-07T01:56:17;100397.28;;;25.50
45701;BMP280;36277;32.852;-116.998;2023-05-07T01:58:44;100410.16;;;25.58
45701;BMP280;36277;32.852;-116.998;2023-05-07T02:01:13;100416.78;;;25.63
45701;BMP280;36277;32.852;-116.998;2023-05-07T02:03:39;100412.84;;;25.16
45701;BMP280;36277;32.852;-116.998;2023-05-07T02:06:06;100410.97;;;24.88
45701;BMP280;36277;32.852;-116.998;2023-05-07T02:08:32;100415.16;;;24.69
45701;BMP280;36277;32.852;-116.998;2023-05-07T02:10:58;100411.63;;;24.61
45701;BMP280;36277;32.852;-116.998;2023-05-07T02:13:29;100414.47;;;24.82
45701;BMP280;36277;32.852;-116.998;2023-05-07T02:15:56;100423.41;;;24.98
45701;BMP280;36277;32.852;-116.998;2023-05-07T02:18:22;100417.59;;;25.08
45701;BMP280;36277;32.852;-116.998;2023-05-07T02:20:49;100419.22;;;25.17
45701;BMP280;36277;32.852;-116.998;2023-05-07T02:23:15;100411.84;;;25.24
45701;BMP280;36277;32.852;-116.998;2023-05-07T02:25:41;100414.72;;;25.30
45701;BMP280;36277;32.852;-116.998;2023-05-07T02:28:07;100413.06;;;25.35
45701;BMP280;36277;32.852;-116.998;2023-05-07T02:30:33;100417.81;;;25.41
45701;BMP280;36277;32.852;-116.998;2023-05-07T02:33:00;100424.69;;;25.45
45701;BMP280;36277;32.852;-116.998;2023-05-07T02:35:26;100424.94;;;25.50
45701;BMP280;36277;32.852;-116.998;2023-05-07T02:37:52;100422.66;;;25.54
45701;BMP280;36277;32.852;-116.998;2023-05-07T02:40:18;100417.56;;;25.57
45701;BMP280;36277;32.852;-116.998;2023-05-07T02:42:45;100428.44;;;25.59
45701;BMP280;36277;32.852;-116.998;2023-05-07T02:45:11;100432.72;;;25.61
45701;BMP280;36277;32.852;-116.998;2023-05-07T02:47:37;100433.38;;;25.63
45701;BMP280;36277;32.852;-116.998;2023-05-07T02:50:04;100439.34;;;25.67
45701;BMP280;36277;32.852;-116.998;2023-05-07T02:52:30;100434.31;;;25.70
45701;BMP280;36277;32.852;-116.998;2023-05-07T02:54:56;100429.44;;;25.72
45701;BMP280;36277;32.852;-116.998;2023-05-07T02:57:23;100441.78;;;25.76
45701;BMP280;36277;32.852;-116.998;2023-05-07T02:59:49;100443.06;;;25.74
45701;BMP280;36277;32.852;-116.998;2023-05-07T03:02:16;100437.72;;;25.72
45701;BMP280;36277;32.852;-116.998;2023-05-07T03:04:42;100444.75;;;25.75
45701;BMP280;36277;32.852;-116.998;2023-05-07T03:07:08;100445.81;;;25.74
45701;BMP280;36277;32.852;-116.998;2023-05-07T03:09:35;100445.81;;;25.74
45701;BMP280;36277;32.852;-116.998;2023-05-07T03:12:01;100450.50;;;25.73
45701;BMP280;36277;32.852;-116.998;2023-05-07T03:14:27;100459.44;;;25.75
45701;BMP280;36277;32.852;-116.998;2023-05-07T03:16:54;100458.97;;;25.72
45701;BMP280;36277;32.852;-116.998;2023-05-07T03:19:20;100452.66;;;25.57
45701;BMP280;36277;32.852;-116.998;2023-05-07T03:21:46;100465.75;;;25.48
45701;BMP280;36277;32.852;-116.998;2023-05-07T03:24:13;100460.72;;;25.37
45701;BMP280;36277;32.852;-116.998;2023-05-07T03:26:39;100466.25;;;25.23
45701;BMP280;36277;32.852;-116.998;2023-05-07T03:29:05;100456.53;;;25.27
45701;BMP280;36277;32.852;-116.998;2023-05-07T03:31:31;100465.78;;;25.34
45701;BMP280;36277;32.852;-116.998;2023-05-07T03:33:58;100467.09;;;25.38
45701;BMP280;36277;32.852;-116.998;2023-05-07T03:36:24;100463.25;;;25.39
45701;BMP280;36277;32.852;-116.998;2023-05-07T03:38:53;100464.41;;;25.44
45701;BMP280;36277;32.852;-116.998;2023-05-07T03:41:19;100472.31;;;25.47
45701;BMP280;36277;32.852;-116.998;2023-05-07T03:43:46;100467.63;;;25.48
45701;BMP280;36277;32.852;-116.998;2023-05-07T03:46:12;100469.34;;;25.49
45701;BMP280;36277;32.852;-116.998;2023-05-07T03:48:38;100465.53;;;25.50
45701;BMP280;36277;32.852;-116.998;2023-05-07T03:51:04;100466.59;;;25.49
45701;BMP280;36277;32.852;-116.998;2023-05-07T03:53:31;100464.66;;;25.49
45701;BMP280;36277;32.852;-116.998;2023-05-07T03:55:57;100462.97;;;25.48
45701;BMP280;36277;32.852;-116.998;2023-05-07T03:58:23;100474.66;;;25.50
45701;BMP280;36277;32.852;-116.998;2023-05-07T04:00:49;100480.19;;;25.50
45701;BMP280;36277;32.852;-116.998;2023-05-07T04:03:15;100472.50;;;25.46
45701;BMP280;36277;32.852;-116.998;2023-05-07T04:05:42;100465.94;;;25.47
45701;BMP280;36277;32.852;-116.998;2023-05-07T04:08:08;100474.03;;;25.48
45701;BMP280;36277;32.852;-116.998;2023-05-07T04:10:34;100465.09;;;25.46
45701;BMP280;36277;32.852;-116.998;2023-05-07T04:13:00;100473.09;;;25.41
45701;BMP280;36277;32.852;-116.998;2023-05-07T04:15:27;100472.03;;;25.42
45701;BMP280;36277;32.852;-116.998;2023-05-07T04:17:53;100473.94;;;25.42
45701;BMP280;36277;32.852;-116.998;2023-05-07T04:20:19;100472.22;;;25.41
45701;BMP280;36277;32.852;-116.998;2023-05-07T04:22:45;100473.75;;;25.43
45701;BMP280;36277;32.852;-116.998;2023-05-07T04:25:12;100473.75;;;25.43
45701;BMP280;36277;32.852;-116.998;2023-05-07T04:27:38;100471.84;;;25.44
45701;BMP280;36277;32.852;-116.998;2023-05-07T04:30:05;100479.94;;;25.45
45701;BMP280;36277;32.852;-116.998;2023-05-07T04:32:32;100479.47;;;25.42
45701;BMP280;36277;32.852;-116.998;2023-05-07T04:34:58;100478.25;;;25.44
45701;BMP280;36277;32.852;-116.998;2023-05-07T04:37:25;100479.06;;;25.45
45701;BMP280;36277;32.852;-116.998;2023-05-07T04:39:52;100481.00;;;25.44
45701;BMP280;36277;32.852;-116.998;2023-05-07T04:42:18;100482.88;;;25.44
45701;BMP280;36277;32.852;-116.998;2023-05-07T04:44:45;100478.81;;;25.40
45701;BMP280;36277;32.852;-116.998;2023-05-07T04:47:12;100474.31;;;25.39
45701;BMP280;36277;32.852;-116.998;2023-05-07T04:49:38;100476.25;;;25.38
45701;BMP280;36277;32.852;-116.998;2023-05-07T04:52:05;100477.69;;;25.34
45701;BMP280;36277;32.852;-116.998;2023-05-07T04:54:31;100485.13;;;25.34
45701;BMP280;36277;32.852;-116.998;2023-05-07T04:56:57;100490.66;;;25.34
45701;BMP280;36277;32.852;-116.998;2023-05-07T04:59:23;100487.00;;;25.33
45701;BMP280;36277;32.852;-116.998;2023-05-07T05:01:50;100490.81;;;25.32
45701;BMP280;36277;32.852;-116.998;2023-05-07T05:04:16;100486.16;;;25.33
45701;BMP280;36277;32.852;-116.998;2023-05-07T05:06:42;100490.16;;;25.30
45701;BMP280;36277;32.852;-116.998;2023-05-07T05:09:08;100477.78;;;25.27
45701;BMP280;36277;32.852;-116.998;2023-05-07T05:11:35;100472.47;;;25.25
45701;BMP280;36277;32.852;-116.998;2023-05-07T05:14:01;100475.00;;;25.27
45701;BMP280;36277;32.852;-116.998;2023-05-07T05:16:27;100470.16;;;25.28
45701;BMP280;36277;32.852;-116.998;2023-05-07T05:18:54;100477.09;;;25.25
45701;BMP280;36277;32.852;-116.998;2023-05-07T05:21:20;100474.56;;;25.23
45701;BMP280;36277;32.852;-116.998;2023-05-07T05:23:47;100467.78;;;25.26
45701;BMP280;36277;32.852;-116.998;2023-05-07T05:26:13;100470.94;;;25.23
45701;BMP280;36277;32.852;-116.998;2023-05-07T05:28:39;100473.72;;;25.23
45701;BMP280;36277;32.852;-116.998;2023-05-07T05:31:06;100467.97;;;25.24
45701;BMP280;36277;32.852;-116.998;2023-05-07T05:33:32;100473.72;;;25.23
45701;BMP280;36277;32.852;-116.998;2023-05-07T05:35:58;100474.56;;;25.23
45701;BMP280;36277;32.852;-116.998;2023-05-07T05:38:24;100469.25;;;25.22
45701;BMP280;36277;32.852;-116.998;2023-05-07T05:40:51;100466.84;;;25.19
45701;BMP280;36277;32.852;-116.998;2023-05-07T05:43:17;100469.78;;;25.17
45701;BMP280;36277;32.852;-116.998;2023-05-07T05:45:44;100471.88;;;25.15
45701;BMP280;36277;32.852;-116.998;2023-05-07T05:48:10;100462.06;;;25.13
45701;BMP280;36277;32.852;-116.998;2023-05-07T05:50:36;100462.44;;;25.10
45701;BMP280;36277;32.852;-116.998;2023-05-07T05:53:03;100460.94;;;25.07
45701;BMP280;36277;32.852;-116.998;2023-05-07T05:55:29;100465.97;;;25.04
45701;BMP280;36277;32.852;-116.998;2023-05-07T05:57:59;100467.88;;;25.03
45701;BMP280;36277;32.852;-116.998;2023-05-07T06:00:25;100470.44;;;25.05
45701;BMP280;36277;32.852;-116.998;2023-05-07T06:02:52;100470.81;;;25.02
45701;BMP280;36277;32.852;-116.998;2023-05-07T06:05:18;100471.69;;;25.02
45701;BMP280;36277;32.852;-116.998;2023-05-07T06:07:45;100473.31;;;24.97
45701;BMP280;36277;32.852;-116.998;2023-05-07T06:10:11;100473.13;;;24.98
45701;BMP280;36277;32.852;-116.998;2023-05-07T06:12:37;100475.41;;;24.95
45701;BMP280;36277;32.852;-116.998;2023-05-07T06:15:04;100480.94;;;24.95
45701;BMP280;36277;32.852;-116.998;2023-05-07T06:17:30;100476.63;;;24.92
45701;BMP280;36277;32.852;-116.998;2023-05-07T06:19:56;100469.91;;;24.95
45701;BMP280;36277;32.852;-116.998;2023-05-07T06:22:23;100468.56;;;24.91
45701;BMP280;36277;32.852;-116.998;2023-05-07T06:24:49;100469.59;;;24.90
45701;BMP280;36277;32.852;-116.998;2023-05-07T06:27:15;100469.41;;;24.91
45701;BMP280;36277;32.852;-116.998;2023-05-07T06:29:41;100467.69;;;24.90
45701;BMP280;36277;32.852;-116.998;2023-05-07T06:32:11;100468.56;;;24.91
45701;BMP280;36277;32.852;-116.998;2023-05-07T06:34:39;100472.38;;;24.90
45701;BMP280;36277;32.852;-116.998;2023-05-07T06:37:06;100466.34;;;24.86
45701;BMP280;36277;32.852;-116.998;2023-05-07T06:39:33;100476.09;;;24.82
45701;BMP280;36277;32.852;-116.998;2023-05-07T06:42:00;100472.44;;;24.82
45701;BMP280;36277;32.852;-116.998;2023-05-07T06:44:27;100466.47;;;24.78
45701;BMP280;36277;32.852;-116.998;2023-05-07T06:46:54;100467.97;;;24.81
45701;BMP280;36277;32.852;-116.998;2023-05-07T06:49:20;100468.66;;;24.83
45701;BMP280;36277;32.852;-116.998;2023-05-07T06:51:46;100476.34;;;24.73
45701;BMP280;36277;32.852;-116.998;2023-05-07T06:54:12;100478.84;;;24.68
45701;BMP280;36277;32.852;-116.998;2023-05-07T06:56:39;100473.31;;;24.68
45701;BMP280;36277;32.852;-116.998;2023-05-07T06:59:06;100483.97;;;24.71
45701;BMP280;36277;32.852;-116.998;2023-05-07T07:01:32;100475.41;;;24.66
45701;BMP280;36277;32.852;-116.998;2023-05-07T07:03:59;100467.13;;;24.66
45701;BMP280;36277;32.852;-116.998;2023-05-07T07:06:26;100467.50;;;24.63
45701;BMP280;36277;32.852;-116.998;2023-05-07T07:08:52;100462.16;;;24.61
45701;BMP280;36277;32.852;-116.998;2023-05-07T07:11:18;100458.84;;;24.66
45701;BMP280;36277;32.852;-116.998;2023-05-07T07:13:45;100455.78;;;24.61
45701;BMP280;36277;32.852;-116.998;2023-05-07T07:16:11;100454.91;;;24.60
45701;BMP280;36277;32.852;-116.998;2023-05-07T07:18:37;100456.16;;;24.58
45701;BMP280;36277;32.852;-116.998;2023-05-07T07:21:04;100452.75;;;24.56
45701;BMP280;36277;32.852;-116.998;2023-05-07T07:23:30;100456.53;;;24.55
45701;BMP280;36277;32.852;-116.998;2023-05-07T07:25:56;100455.88;;;24.53
45701;BMP280;36277;32.852;-116.998;2023-05-07T07:28:23;100448.47;;;24.53
45701;BMP280;36277;32.852;-116.998;2023-05-07T07:30:49;100459.69;;;24.52
45701;BMP280;36277;32.852;-116.998;2023-05-07T07:33:15;100450.13;;;24.40
45701;BMP280;36277;32.852;-116.998;2023-05-07T07:35:42;100446.69;;;24.38
45701;BMP280;36277;32.852;-116.998;2023-05-07T07:38:08;100449.47;;;24.38
45701;BMP280;36277;32.852;-116.998;2023-05-07T07:40:35;100451.53;;;24.36
45701;BMP280;36277;32.852;-116.998;2023-05-07T07:43:01;100442.38;;;24.35
45701;BMP280;36277;32.852;-116.998;2023-05-07T07:45:27;100440.03;;;24.32
45701;BMP280;36277;32.852;-116.998;2023-05-07T07:47:53;100438.59;;;24.36
45701;BMP280;36277;32.852;-116.998;2023-05-07T07:50:20;100434.69;;;24.31
45701;BMP280;36277;32.852;-116.998;2023-05-07T07:52:47;100432.31;;;24.28
45701;BMP280;36277;32.852;-116.998;2023-05-07T07:55:13;100427.16;;;24.25
45701;BMP280;36277;32.852;-116.998;2023-05-07T07:57:43;100425.44;;;24.24
45701;BMP280;36277;32.852;-116.998;2023-05-07T08:00:10;100418.88;;;24.25
45701;BMP280;36277;32.852;-116.998;2023-05-07T08:02:36;100416.50;;;24.22
45701;BMP280;36277;32.852;-116.998;2023-05-07T08:05:03;100415.34;;;24.16
45701;BMP280;36277;32.852;-116.998;2023-05-07T08:07:29;100417.66;;;24.13
45701;BMP280;36277;32.852;-116.998;2023-05-07T08:09:56;100411.09;;;24.14
45701;BMP280;36277;32.852;-116.998;2023-05-07T08:12:22;100418.69;;;24.12
45701;BMP280;36277;32.852;-116.998;2023-05-07T08:14:48;100418.00;;;24.10
45701;BMP280;36277;32.852;-116.998;2023-05-07T08:17:14;100417.13;;;24.10
45701;BMP280;36277;32.852;-116.998;2023-05-07T08:19:42;100416.66;;;24.06
45701;BMP280;36277;32.852;-116.998;2023-05-07T08:22:09;100420.09;;;24.08
45701;BMP280;36277;32.852;-116.998;2023-05-07T08:24:36;100416.31;;;24.09
45701;BMP280;36277;32.852;-116.998;2023-05-07T08:27:03;100413.91;;;24.06
45701;BMP280;36277;32.852;-116.998;2023-05-07T08:29:29;100421.50;;;24.04
45701;BMP280;36277;32.852;-116.998;2023-05-07T08:31:55;100409.63;;;24.04
45701;BMP280;36277;32.852;-116.998;2023-05-07T08:34:22;100417.03;;;24.03
45701;BMP280;36277;32.852;-116.998;2023-05-07T08:36:48;100413.97;;;23.98
45701;BMP280;36277;32.852;-116.998;2023-05-07T08:39:17;100416.38;;;24.01
45701;BMP280;36277;32.852;-116.998;2023-05-07T08:41:48;100414.84;;;23.99
45701;BMP280;36277;32.852;-116.998;2023-05-07T08:44:22;100412.47;;;23.96
45701;BMP280;36277;32.852;-116.998;2023-05-07T08:46:50;100417.78;;;23.97
45701;BMP280;36277;32.852;-116.998;2023-05-07T08:49:20;100416.94;;;23.97
45701;BMP280;36277;32.852;-116.998;2023-05-07T08:51:46;100406.09;;;23.95
45701;BMP280;36277;32.852;-116.998;2023-05-07T08:54:16;100406.47;;;23.92
45701;BMP280;36277;32.852;-116.998;2023-05-07T08:56:43;100404.81;;;23.83
45701;BMP280;36277;32.852;-116.998;2023-05-07T08:59:10;100405.28;;;23.87
45701;BMP280;36277;32.852;-116.998;2023-05-07T09:01:36;100393.44;;;23.86
45701;BMP280;36277;32.852;-116.998;2023-05-07T09:04:02;100401.03;;;23.84
45701;BMP280;36277;32.852;-116.998;2023-05-07T09:06:29;100397.25;;;23.77
45701;BMP280;36277;32.852;-116.998;2023-05-07T09:08:56;100399.09;;;23.85
45701;BMP280;36277;32.852;-116.998;2023-05-07T09:11:24;100388.66;;;23.80
45701;BMP280;36277;32.852;-116.998;2023-05-07T09:13:54;100395.88;;;23.81
45701;BMP280;36277;32.852;-116.998;2023-05-07T09:16:22;100388.97;;;23.77
45701;BMP280;36277;32.852;-116.998;2023-05-07T09:18:52;100394.50;;;23.77
45701;BMP280;36277;32.852;-116.998;2023-05-07T09:21:20;100384.03;;;23.73
45701;BMP280;36277;32.852;-116.998;2023-05-07T09:23:51;100400.38;;;23.74
45701;BMP280;36277;32.852;-116.998;2023-05-07T09:26:18;100400.47;;;23.66
45701;BMP280;36277;32.852;-116.998;2023-05-07T09:28:46;100411.75;;;23.71
45701;BMP280;36277;32.852;-116.998;2023-05-07T09:31:13;100390.38;;;23.73
45701;BMP280;36277;32.852;-116.998;2023-05-07T09:33:40;100391.16;;;23.67
45701;BMP280;36277;32.852;-116.998;2023-05-07T09:36:07;100403.22;;;23.66
45701;BMP280;36277;32.852;-116.998;2023-05-07T09:38:35;100401.50;;;23.65
45701;BMP280;36277;32.852;-116.998;2023-05-07T09:41:10;100396.84;;;23.66
45701;BMP280;36277;32.852;-116.998;2023-05-07T09:43:38;100405.66;;;23.61
45701;BMP280;36277;32.852;-116.998;2023-05-07T09:46:12;100404.63;;;23.62
45701;BMP280;36277;32.852;-116.998;2023-05-07T09:48:41;100396.72;;;23.59
45701;BMP280;36277;32.852;-116.998;2023-05-07T09:51:29;100398.81;;;23.57
45701;BMP280;36277;32.852;-116.998;2023-05-07T09:53:59;100399.53;;;23.51
45701;BMP280;36277;32.852;-116.998;2023-05-07T09:56:29;100398.50;;;23.52
45701;BMP280;36277;32.852;-116.998;2023-05-07T09:58:59;100397.34;;;23.47
45701;BMP280;36277;32.852;-116.998;2023-05-07T10:01:27;100399.78;;;23.42
45701;BMP280;36277;32.852;-116.998;2023-05-07T10:03:53;100398.06;;;23.41
45701;BMP280;36277;32.852;-116.998;2023-05-07T10:06:20;100401.84;;;23.40
45701;BMP280;36277;32.852;-116.998;2023-05-07T10:08:48;100404.44;;;23.41
45701;BMP280;36277;32.852;-116.998;2023-05-07T10:11:16;100406.63;;;23.46
45701;BMP280;36277;32.852;-116.998;2023-05-07T10:13:43;100406.16;;;23.42
45701;BMP280;36277;32.852;-116.998;2023-05-07T10:16:09;100408.59;;;23.37
45701;BMP280;36277;32.852;-116.998;2023-05-07T10:18:37;100409.81;;;23.35
45701;BMP280;36277;32.852;-116.998;2023-05-07T10:21:08;100403.44;;;23.34
45701;BMP280;36277;32.852;-116.998;2023-05-07T10:23:38;100400.84;;;23.33
45701;BMP280;36277;32.852;-116.998;2023-05-07T10:26:08;100403.13;;;23.29
45701;BMP280;36277;32.852;-116.998;2023-05-07T10:28:38;100404.81;;;23.38
45701;BMP280;36277;32.852;-116.998;2023-05-07T10:31:46;100398.63;;;23.36
45701;BMP280;36277;32.852;-116.998;2023-05-07T10:34:21;100398.78;;;23.35
45701;BMP280;36277;32.852;-116.998;2023-05-07T10:36:49;100406.56;;;23.31
45701;BMP280;36277;32.852;-116.998;2023-05-07T10:39:17;100393.50;;;23.25
45701;BMP280;36277;32.852;-116.998;2023-05-07T10:41:45;100397.81;;;23.28
45701;BMP280;36277;32.852;-116.998;2023-05-07T10:44:13;100397.50;;;23.23
45701;BMP280;36277;32.852;-116.998;2023-05-07T10:47:10;100396.09;;;23.27
45701;BMP280;36277;32.852;-116.998;2023-05-07T10:52:31;100408.06;;;23.11
45701;BMP280;36277;32.852;-116.998;2023-05-07T10:57:51;100411.50;;;23.13
45701;BMP280;36277;32.852;-116.998;2023-05-07T11:05:30;100414.25;;;23.05
45701;BMP280;36277;32.852;-116.998;2023-05-07T11:07:58;100406.19;;;23.04
45701;BMP280;36277;32.852;-116.998;2023-05-07T11:10:52;100400.16;;;23.08
45701;BMP280;36277;32.852;-116.998;2023-05-07T11:13:40;100396.38;;;23.01
45701;BMP280;36277;32.852;-116.998;2023-05-07T11:16:20;100401.53;;;23.04
45701;BMP280;36277;32.852;-116.998;2023-05-07T11:18:48;100389.00;;;23.02
45701;BMP280;36277;32.852;-116.998;2023-05-07T11:21:40;100378.81;;;23.02
45701;BMP280;36277;32.852;-116.998;2023-05-07T11:24:07;100376.97;;;22.95
45701;BMP280;36277;32.852;-116.998;2023-05-07T11:26:44;100381.59;;;23.02
45701;BMP280;36277;32.852;-116.998;2023-05-07T11:29:16;100376.94;;;23.03
45701;BMP280;36277;32.852;-116.998;2023-05-07T11:31:43;100385.94;;;22.97
45701;BMP280;36277;32.852;-116.998;2023-05-07T11:34:09;100386.09;;;22.96
45701;BMP280;36277;32.852;-116.998;2023-05-07T11:36:42;100387.13;;;22.95
45701;BMP280;36277;32.852;-116.998;2023-05-07T11:39:25;100381.44;;;22.96
45701;BMP280;36277;32.852;-116.998;2023-05-07T11:41:51;100377.91;;;22.88
45701;BMP280;36277;32.852;-116.998;2023-05-07T11:44:17;100380.44;;;22.89
45701;BMP280;36277;32.852;-116.998;2023-05-07T11:46:44;100375.50;;;22.85
45701;BMP280;36277;32.852;-116.998;2023-05-07T11:49:11;100374.47;;;22.86
45701;BMP280;36277;32.852;-116.998;2023-05-07T11:51:37;100376.34;;;22.85
45701;BMP280;36277;32.852;-116.998;2023-05-07T11:54:04;100379.97;;;22.86
45701;BMP280;36277;32.852;-116.998;2023-05-07T11:56:35;100372.78;;;22.77
45701;BMP280;36277;32.852;-116.998;2023-05-07T11:59:01;100371.38;;;22.81
45701;BMP280;36277;32.852;-116.998;2023-05-07T12:01:27;100379.66;;;22.73
45701;BMP280;36277;32.852;-116.998;2023-05-07T12:03:54;100368.66;;;22.73
45701;BMP280;36277;32.852;-116.998;2023-05-07T12:06:20;100366.59;;;22.75
45701;BMP280;36277;32.852;-116.998;2023-05-07T12:08:46;100369.88;;;22.78
45701;BMP280;36277;32.852;-116.998;2023-05-07T12:11:22;100369.19;;;22.76
45701;BMP280;36277;32.852;-116.998;2023-05-07T12:13:49;100366.25;;;22.70
45701;BMP280;36277;32.852;-116.998;2023-05-07T12:16:16;100372.81;;;22.69
45701;BMP280;36277;32.852;-116.998;2023-05-07T12:18:42;100373.31;;;22.72
45701;BMP280;36277;32.852;-116.998;2023-05-07T12:21:10;100372.44;;;22.72
45701;BMP280;36277;32.852;-116.998;2023-05-07T12:23:37;100375.19;;;22.72
45701;BMP280;36277;32.852;-116.998;2023-05-07T12:26:04;100373.69;;;22.69
45701;BMP280;36277;32.852;-116.998;2023-05-07T12:28:32;100366.66;;;22.67
45701;BMP280;36277;32.852;-116.998;2023-05-07T12:31:02;100371.97;;;22.68
45701;BMP280;36277;32.852;-116.998;2023-05-07T12:33:29;100368.66;;;22.73
45701;BMP280;36277;32.852;-116.998;2023-05-07T12:35:58;100371.28;;;22.66
45701;BMP280;36277;32.852;-116.998;2023-05-07T12:38:24;100373.69;;;22.69
45701;BMP280;36277;32.852;-116.998;2023-05-07T12:40:54;100379.38;;;22.68
45701;BMP280;36277;32.852;-116.998;2023-05-07T12:43:23;100381.59;;;22.64
45701;BMP280;36277;32.852;-116.998;2023-05-07T12:45:51;100386.25;;;22.64
45701;BMP280;36277;32.852;-116.998;2023-05-07T12:48:19;100378.00;;;22.64
45701;BMP280;36277;32.852;-116.998;2023-05-07T12:50:49;100385.38;;;22.63
45701;BMP280;36277;32.852;-116.998;2023-05-07T12:53:17;100382.50;;;22.57
45701;BMP280;36277;32.852;-116.998;2023-05-07T12:55:45;100388.34;;;22.62
45701;BMP280;36277;32.852;-116.998;2023-05-07T12:58:17;100382.84;;;22.62
45701;BMP280;36277;32.852;-116.998;2023-05-07T13:00:45;100393.50;;;22.57
45701;BMP280;36277;32.852;-116.998;2023-05-07T13:03:21;100395.91;;;22.60
45701;BMP280;36277;32.852;-116.998;2023-05-07T13:05:48;100394.03;;;22.52
45701;BMP280;36277;32.852;-116.998;2023-05-07T13:08:27;100401.56;;;22.58
45701;BMP280;36277;32.852;-116.998;2023-05-07T13:10:54;100398.00;;;22.50
45701;BMP280;36277;32.852;-116.998;2023-05-07T13:13:21;100407.28;;;22.49
45701;BMP280;36277;32.852;-116.998;2023-05-07T13:15:48;100412.44;;;22.52
45701;BMP280;36277;32.852;-116.998;2023-05-07T13:18:14;100410.91;;;22.49
45701;BMP280;36277;32.852;-116.998;2023-05-07T13:20:40;100417.59;;;22.47
45701;BMP280;36277;32.852;-116.998;2023-05-07T13:23:07;100421.03;;;22.49
45701;BMP280;36277;32.852;-116.998;2023-05-07T13:25:33;100423.44;;;22.44
45701;BMP280;36277;32.852;-116.998;2023-05-07T13:27:59;100422.59;;;22.43
45701;BMP280;36277;32.852;-116.998;2023-05-07T13:30:26;100432.72;;;22.43
45701;BMP280;36277;32.852;-116.998;2023-05-07T13:32:55;100419.31;;;22.48
45701;BMP280;36277;32.852;-116.998;2023-05-07T13:35:22;100425.53;;;22.42